Time;durP1;ratioP1;P1;durP2;ratioP2;P2;SDS_P1;SDS_P2;PMS_P1;PMS_P2;Temp;Humidity;BMP_temperature;BMP_pressure;BME280_temperature;BME280_humidity;BME280_pressure;Samples;Min_cycle;Max_cycle;Signal;HPM_P1;HPM_P2
2022/10/02 00:02:13;;;;;;;11.15;2.55;;;;;;;;;;5094599;28;20052;-70
2022/10/02 00:04:48;;;;;;;11.35;2.22;;;;;;;;;;5099563;28;20078;-72
2022/10/02 00:07:15;;;;;;;13.00;2.47;;;;;;;;;;5103203;27;20118;-71
2022/10/02 00:09:45;;;;;;;8.50;2.05;;;;;;;;;;5104773;28;20059;-71
2022/10/02 00:12:14;;;;;;;13.10;1.80;;;;;;;;;;5111329;27;20056;-71
2022/10/02 00:14:43;;;;;;;9.30;2.15;;;;;;;;;;5111290;27;20110;-71
2022/10/02 00:17:15;;;;;;;12.85;2.50;;;;;;;;;;5112076;27;20496;-71
2022/10/02 00:19:41;;;;;;;8.38;1.85;;;;;;;;;;5105043;27;20826;-71
2022/10/02 00:22:20;;;;;;;10.60;1.85;;;;;;;;;;5097933;28;20082;-71
2022/10/02 00:25:01;;;;;;;10.63;3.80;;;;;;;;;;5099032;28;20052;-72
2022/10/02 00:28:00;;;;;;;16.70;2.75;;;;;;;;;;5097879;27;20588;-71
2022/10/02 00:30:28;;;;;;;9.82;2.47;;;;;;;;;;5063060;28;20553;-70
2022/10/02 00:32:59;;;;;;;10.05;2.30;;;;;;;;;;5096270;28;20056;-71
2022/10/02 00:35:38;;;;;;;9.75;2.13;;;;;;;;;;5096935;28;20052;-71
2022/10/02 00:38:14;;;;;;;7.32;1.60;;;;;;;;;;5098981;28;20048;-72
2022/10/02 00:40:46;;;;;;;10.88;2.50;;;;;;;;;;5098831;27;20484;-72
2022/10/02 00:43:31;;;;;;;9.27;2.10;;;;;;;;;;5095553;28;20837;-72
2022/10/02 00:45:57;;;;;;;11.20;2.60;;;;;;;;;;5095530;28;20507;-71
2022/10/02 00:48:42;;;;;;;14.60;2.50;;;;;;;;;;5105006;27;20274;-72
2022/10/02 00:51:23;;;;;;;11.52;2.08;;;;;;;;;;5098643;27;20524;-72
2022/10/02 00:54:05;;;;;;;9.80;2.15;;;;;;;;;;5109798;28;20056;-71
2022/10/02 00:56:50;;;;;;;7.95;2.25;;;;;;;;;;5096781;28;20133;-72
2022/10/02 00:59:28;;;;;;;8.63;2.80;;;;;;;;;;5098976;28;20098;-72
2022/10/02 01:02:04;;;;;;;14.90;3.30;;;;;;;;;;5101992;28;20052;-72
2022/10/02 01:04:32;;;;;;;12.13;2.40;;;;;;;;;;5111425;27;20072;-72
2022/10/02 01:07:01;;;;;;;10.10;1.95;;;;;;;;;;5109728;27;20102;-72
2022/10/02 01:09:27;;;;;;;15.55;2.80;;;;;;;;;;5110749;27;20052;-72
2022/10/02 01:11:54;;;;;;;13.55;4.57;;;;;;;;;;5114687;27;20106;-72
2022/10/02 01:14:29;;;;;;;7.72;2.10;;;;;;;;;;5115306;27;20106;-72
2022/10/02 01:16:56;;;;;;;;;;;;;;;;;;5107619;28;20060;-73
2022/10/02 01:19:25;;;;;;;11.30;2.28;;;;;;;;;;5114418;27;45783;-72
2022/10/02 01:21:54;;;;;;;13.85;2.28;;;;;;;;;;5114787;27;20483;-73
2022/10/02 01:24:23;;;;;;;12.65;2.03;;;;;;;;;;5115719;27;20133;-72
2022/10/02 01:26:49;;;;;;;12.43;3.70;;;;;;;;;;5114675;27;20109;-72
2022/10/02 01:29:15;;;;;;;16.60;2.45;;;;;;;;;;5113136;27;20060;-72
2022/10/02 01:31:42;;;;;;;11.57;2.15;;;;;;;;;;5119302;27;20110;-73
2022/10/02 01:34:08;;;;;;;13.65;2.58;;;;;;;;;;5116322;27;20471;-72
2022/10/02 01:36:35;;;;;;;14.85;3.00;;;;;;;;;;5110985;28;20566;-72
2022/10/02 01:39:02;;;;;;;11.18;2.85;;;;;;;;;;5113836;27;20052;-72
2022/10/02 01:41:28;;;;;;;14.88;3.53;;;;;;;;;;5114512;27;20056;-72
2022/10/02 01:43:57;;;;;;;8.07;2.50;;;;;;;;;;5114745;27;20173;-72
2022/10/02 01:46:30;;;;;;;12.90;2.53;;;;;;;;;;5114677;27;20048;-72
2022/10/02 01:49:09;;;;;;;9.93;2.50;;;;;;;;;;5113599;27;20059;-72
2022/10/02 01:51:35;;;;;;;15.40;2.75;;;;;;;;;;5103705;27;20502;-73
2022/10/02 01:54:13;;;;;;;18.35;3.08;;;;;;;;;;5110422;27;20565;-72
2022/10/02 01:56:58;;;;;;;17.65;3.63;;;;;;;;;;5101239;27;20106;-72
2022/10/02 01:59:28;;;;;;;12.55;2.67;;;;;;;;;;5110745;27;20094;-72
2022/10/02 02:01:54;;;;;;;11.68;3.50;;;;;;;;;;5113876;27;20055;-72
2022/10/02 02:04:23;;;;;;;22.23;3.20;;;;;;;;;;5125656;27;20051;-73
2022/10/02 02:06:56;;;;;;;12.45;3.47;;;;;;;;;;5114380;27;20060;-72
2022/10/02 02:09:28;;;;;;;14.98;3.88;;;;;;;;;;5114049;27;20056;-72
2022/10/02 02:12:07;;;;;;;17.50;3.40;;;;;;;;;;5102473;28;20528;-72
2022/10/02 02:14:37;;;;;;;17.55;3.17;;;;;;;;;;5101416;27;20106;-72
2022/10/02 02:17:10;;;;;;;13.20;3.55;;;;;;;;;;5129030;27;20551;-72
2022/10/02 02:19:41;;;;;;;20.95;3.90;;;;;;;;;;5113810;28;20101;-72
2022/10/02 02:22:14;;;;;;;17.90;3.90;;;;;;;;;;5112942;27;20056;-73
2022/10/02 02:24:51;;;;;;;14.80;3.53;;;;;;;;;;5114092;27;20052;-73
2022/10/02 02:27:20;;;;;;;17.15;3.60;;;;;;;;;;5113481;27;20063;-73
2022/10/02 02:29:48;;;;;;;16.60;3.20;;;;;;;;;;5111980;27;20101;-72
2022/10/02 02:32:16;;;;;;;7.30;2.55;;;;;;;;;;5113693;27;20052;-73
2022/10/02 02:34:44;;;;;;;12.45;3.45;;;;;;;;;;5112714;27;20563;-73
2022/10/02 02:37:15;;;;;;;18.85;3.80;;;;;;;;;;5113202;27;20056;-72
2022/10/02 02:39:46;;;;;;;19.08;3.40;;;;;;;;;;5112864;27;20048;-72
2022/10/02 02:42:13;;;;;;;14.65;3.53;;;;;;;;;;5113309;27;20056;-73
2022/10/02 02:44:48;;;;;;;15.90;3.35;;;;;;;;;;5113131;28;20056;-72
2022/10/02 02:47:17;;;;;;;17.48;3.20;;;;;;;;;;5109437;27;20058;-72
2022/10/02 02:49:49;;;;;;;19.98;4.55;;;;;;;;;;5106967;28;20110;-73
2022/10/02 02:52:18;;;;;;;15.50;3.63;;;;;;;;;;5113428;27;20056;-73
2022/10/02 02:54:47;;;;;;;9.48;3.20;;;;;;;;;;5102900;28;20083;-72
2022/10/02 02:57:15;;;;;;;21.20;3.72;;;;;;;;;;5112752;28;20074;-73
2022/10/02 02:59:42;;;;;;;20.13;3.90;;;;;;;;;;5110589;27;20105;-72
2022/10/02 03:02:09;;;;;;;16.92;3.50;;;;;;;;;;5109886;27;20553;-72
2022/10/02 03:04:35;;;;;;;16.77;3.67;;;;;;;;;;5100374;28;20056;-73
2022/10/02 03:07:02;;;;;;;15.52;3.55;;;;;;;;;;5113033;27;20044;-72
2022/10/02 03:09:31;;;;;;;15.57;2.83;;;;;;;;;;5113588;27;20616;-72
2022/10/02 03:11:57;;;;;;;19.70;3.22;;;;;;;;;;5110936;27;20063;-73
2022/10/02 03:14:35;;;;;;;33.95;6.80;;;;;;;;;;5106963;27;20040;-72
2022/10/02 03:17:01;;;;;;;12.75;3.55;;;;;;;;;;5116839;27;20532;-72
2022/10/02 03:19:28;;;;;;;26.58;4.32;;;;;;;;;;5113217;28;20055;-73
2022/10/02 03:21:57;;;;;;;24.85;3.15;;;;;;;;;;5099858;27;20086;-72
2022/10/02 03:24:53;;;;;;;10.82;3.40;;;;;;;;;;5103169;28;20056;-72
2022/10/02 03:27:26;;;;;;;23.33;3.92;;;;;;;;;;5095347;28;20500;-73
2022/10/02 03:30:02;;;;;;;22.70;4.10;;;;;;;;;;5111606;27;20430;-73
2022/10/02 03:32:29;;;;;;;13.98;3.08;;;;;;;;;;5111242;27;20048;-73
2022/10/02 03:34:56;;;;;;;10.88;2.97;;;;;;;;;;5112345;27;20533;-72
2022/10/02 03:37:24;;;;;;;15.98;3.50;;;;;;;;;;5117752;27;20055;-72
2022/10/02 03:39:53;;;;;;;18.05;3.10;;;;;;;;;;5110975;28;20052;-72
2022/10/02 03:42:23;;;;;;;21.13;4.00;;;;;;;;;;5112171;27;20106;-72
2022/10/02 03:44:50;;;;;;;15.40;3.20;;;;;;;;;;5101980;27;20056;-72
2022/10/02 03:47:16;;;;;;;15.20;3.88;;;;;;;;;;5112138;27;20052;-72
2022/10/02 03:49:42;;;;;;;21.30;5.60;;;;;;;;;;5105316;27;20106;-72
2022/10/02 03:52:16;;;;;;;14.90;2.88;;;;;;;;;;5112245;27;20056;-73
2022/10/02 03:54:43;;;;;;;19.77;3.17;;;;;;;;;;5112583;27;20048;-72
2022/10/02 03:57:20;;;;;;;15.98;3.45;;;;;;;;;;5112191;27;20052;-72
2022/10/02 03:59:49;;;;;;;13.95;3.17;;;;;;;;;;5111440;28;20052;-71
2022/10/02 04:02:20;;;;;;;10.57;3.80;;;;;;;;;;5112025;27;20056;-73
2022/10/02 04:04:53;;;;;;;16.67;3.08;;;;;;;;;;5110093;27;20051;-72
2022/10/02 04:07:24;;;;;;;25.50;4.18;;;;;;;;;;5093012;28;20106;-72
2022/10/02 04:09:55;;;;;;;11.75;2.88;;;;;;;;;;5111787;27;20060;-72
2022/10/02 04:12:33;;;;;;;11.55;2.65;;;;;;;;;;5106708;27;20561;-72
2022/10/02 04:15:03;;;;;;;19.85;3.67;;;;;;;;;;5111784;27;20048;-72
2022/10/02 04:17:35;;;;;;;12.38;2.88;;;;;;;;;;5110158;27;20063;-72
2022/10/02 04:20:17;;;;;;;14.02;3.50;;;;;;;;;;5093381;27;20507;-72
2022/10/02 04:22:48;;;;;;;26.75;4.45;;;;;;;;;;5100079;27;20504;-72
2022/10/02 04:25:22;;;;;;;21.48;3.30;;;;;;;;;;5105854;27;20056;-72
2022/10/02 04:28:01;;;;;;;12.95;3.25;;;;;;;;;;5109884;27;20070;-72
2022/10/02 04:30:29;;;;;;;19.23;3.17;;;;;;;;;;5102694;27;20051;-72
2022/10/02 04:32:55;;;;;;;21.27;3.33;;;;;;;;;;5106924;27;20078;-72
2022/10/02 04:35:27;;;;;;;17.33;2.80;;;;;;;;;;5126458;27;20121;-72
2022/10/02 04:38:09;;;;;;;18.15;3.65;;;;;;;;;;5106730;27;21209;-72
2022/10/02 04:40:57;;;;;;;15.43;3.25;;;;;;;;;;5106772;28;20048;-72
2022/10/02 04:43:27;;;;;;;17.17;4.00;;;;;;;;;;5105357;27;20044;-72
2022/10/02 04:45:59;;;;;;;8.90;2.47;;;;;;;;;;5114926;27;20052;-72
2022/10/02 04:48:34;;;;;;;15.00;3.40;;;;;;;;;;5108076;27;20044;-73
2022/10/02 04:51:01;;;;;;;13.10;3.15;;;;;;;;;;5115803;27;20067;-72
2022/10/02 04:53:51;;;;;;;14.10;2.38;;;;;;;;;;5114294;28;20056;-73
2022/10/02 04:56:31;;;;;;;23.08;3.42;;;;;;;;;;5114384;27;20358;-73
2022/10/02 04:59:13;;;;;;;12.90;2.88;;;;;;;;;;5113595;27;20063;-72
2022/10/02 05:01:46;;;;;;;14.63;2.55;;;;;;;;;;5106528;27;20488;-73
2022/10/02 05:04:37;;;;;;;12.57;3.05;;;;;;;;;;5115257;28;20048;-73
2022/10/02 05:07:21;;;;;;;11.85;2.72;;;;;;;;;;5114469;27;20056;-70
2022/10/02 05:10:00;;;;;;;25.48;4.13;;;;;;;;;;5112877;27;20056;-71
2022/10/02 05:12:36;;;;;;;19.75;2.85;;;;;;;;;;5115246;27;20045;-70
2022/10/02 05:15:15;;;;;;;18.83;3.25;;;;;;;;;;5109502;27;20518;-72
2022/10/02 05:17:47;;;;;;;23.45;3.88;;;;;;;;;;5111914;27;20044;-70
2022/10/02 05:20:22;;;;;;;10.82;3.05;;;;;;;;;;5112918;27;20063;-70
2022/10/02 05:23:05;;;;;;;13.45;3.38;;;;;;;;;;5113986;27;20051;-70
2022/10/02 05:25:55;;;;;;;11.38;2.92;;;;;;;;;;5114860;27;20125;-70
2022/10/02 05:28:22;;;;;;;11.27;2.90;;;;;;;;;;5108299;28;20665;-71
2022/10/02 05:31:08;;;;;;;12.40;2.65;;;;;;;;;;5113126;28;20143;-71
2022/10/02 05:33:40;;;;;;;15.93;2.42;;;;;;;;;;5099751;28;20144;-70
2022/10/02 05:36:26;;;;;;;9.55;2.88;;;;;;;;;;5102316;27;20135;-70
2022/10/02 05:39:01;;;;;;;18.83;4.10;;;;;;;;;;5112791;27;20048;-71
2022/10/02 05:41:57;;;;;;;19.77;2.80;;;;;;;;;;5112723;27;20075;-71
2022/10/02 05:44:25;;;;;;;12.07;2.80;;;;;;;;;;5098011;27;20283;-72
2022/10/02 05:46:52;;;;;;;16.98;2.78;;;;;;;;;;5112489;27;20267;-71
2022/10/02 05:49:24;;;;;;;17.55;2.75;;;;;;;;;;5113752;27;20480;-70
2022/10/02 05:51:58;;;;;;;10.45;2.78;;;;;;;;;;5113484;27;20052;-69
2022/10/02 05:54:33;;;;;;;18.25;2.80;;;;;;;;;;5100346;27;20048;-70
2022/10/02 05:57:11;;;;;;;13.93;2.50;;;;;;;;;;5112837;27;20552;-71
2022/10/02 05:59:53;;;;;;;18.25;2.40;;;;;;;;;;5113578;27;20056;-72
2022/10/02 06:02:24;;;;;;;11.80;2.28;;;;;;;;;;5097944;27;21135;-72
2022/10/02 06:04:53;;;;;;;12.63;2.15;;;;;;;;;;5105422;27;20048;-72
2022/10/02 06:07:19;;;;;;;14.55;2.60;;;;;;;;;;5111774;27;20950;-72
2022/10/02 06:09:56;;;;;;;17.30;4.07;;;;;;;;;;5107008;27;20060;-73
2022/10/02 06:12:41;;;;;;;17.73;2.47;;;;;;;;;;5113913;27;20122;-72
2022/10/02 06:15:08;;;;;;;12.87;2.90;;;;;;;;;;5111925;28;20869;-72
2022/10/02 06:17:43;;;;;;;13.75;2.40;;;;;;;;;;5114436;27;20101;-72
2022/10/02 06:20:12;;;;;;;11.68;2.55;;;;;;;;;;5107895;27;20557;-73
2022/10/02 06:22:45;;;;;;;13.35;2.45;;;;;;;;;;5108346;27;20053;-72
2022/10/02 06:25:25;;;;;;;11.57;2.55;;;;;;;;;;5111570;27;20056;-73
2022/10/02 06:28:04;;;;;;;16.60;3.20;;;;;;;;;;5114385;27;20450;-71
2022/10/02 06:30:34;;;;;;;9.73;2.45;;;;;;;;;;5105822;27;20057;-74
2022/10/02 06:33:08;;;;;;;15.23;2.67;;;;;;;;;;5099306;28;20103;-74
2022/10/02 06:35:42;;;;;;;12.55;2.53;;;;;;;;;;5106285;27;20049;-73
2022/10/02 06:38:34;;;;;;;15.20;2.78;;;;;;;;;;5113240;27;20086;-73
2022/10/02 06:41:12;;;;;;;17.05;2.50;;;;;;;;;;5112999;27;20055;-72
2022/10/02 06:43:55;;;;;;;15.80;2.63;;;;;;;;;;5113812;27;20557;-73
2022/10/02 06:46:26;;;;;;;12.82;2.85;;;;;;;;;;5113424;27;20095;-74
2022/10/02 06:48:57;;;;;;;12.32;3.22;;;;;;;;;;5114333;27;20542;-74
2022/10/02 06:51:39;;;;;;;11.32;3.28;;;;;;;;;;5113242;28;20052;-74
2022/10/02 06:54:15;;;;;;;16.55;2.55;;;;;;;;;;5113016;27;20082;-74
2022/10/02 06:56:42;;;;;;;12.13;2.70;;;;;;;;;;5116758;27;20044;-74
2022/10/02 06:59:11;;;;;;;11.25;2.70;;;;;;;;;;5114034;27;20085;-72
2022/10/02 07:01:45;;;;;;;17.13;4.20;;;;;;;;;;5113341;27;20051;-72
2022/10/02 07:04:24;;;;;;;10.85;2.05;;;;;;;;;;5113049;27;20055;-72
2022/10/02 07:06:53;;;;;;;15.32;2.88;;;;;;;;;;5110923;27;20110;-70
2022/10/02 07:09:39;;;;;;;14.43;2.63;;;;;;;;;;5110626;27;20524;-74
2022/10/02 07:12:20;;;;;;;19.73;5.43;;;;;;;;;;5112650;28;20945;-73
2022/10/02 07:15:04;;;;;;;14.45;3.45;;;;;;;;;;5113385;28;20059;-72
2022/10/02 07:17:56;;;;;;;11.82;2.83;;;;;;;;;;5111249;27;20044;-74
2022/10/02 07:20:34;;;;;;;11.75;2.40;;;;;;;;;;5113788;27;20056;-74
2022/10/02 07:23:00;;;;;;;16.48;3.10;;;;;;;;;;5113521;27;20086;-75
2022/10/02 07:25:53;;;;;;;8.27;2.95;;;;;;;;;;5113693;28;20094;-76
2022/10/02 07:28:31;;;;;;;17.02;2.83;;;;;;;;;;5077995;27;20105;-74
2022/10/02 07:31:18;;;;;;;13.60;2.80;;;;;;;;;;5112450;27;20059;-74
2022/10/02 07:33:50;;;;;;;15.82;3.05;;;;;;;;;;5107812;27;20083;-76
2022/10/02 07:36:35;;;;;;;12.18;2.78;;;;;;;;;;5102883;27;20056;-74
2022/10/02 07:39:01;;;;;;;14.50;3.35;;;;;;;;;;5112191;28;20061;-75
2022/10/02 07:41:54;;;;;;;15.77;4.93;;;;;;;;;;5112875;27;20059;-75
2022/10/02 07:44:24;;;;;;;11.13;2.75;;;;;;;;;;5112525;27;20587;-76
2022/10/02 07:46:51;;;;;;;15.40;2.90;;;;;;;;;;5111848;27;20051;-75
2022/10/02 07:49:40;;;;;;;13.30;3.08;;;;;;;;;;5110306;27;20565;-74
2022/10/02 07:52:16;;;;;;;16.98;2.92;;;;;;;;;;5102805;28;20580;-74
2022/10/02 07:54:46;;;;;;;14.40;3.42;;;;;;;;;;5103878;27;20052;-74
2022/10/02 07:57:25;;;;;;;9.43;2.80;;;;;;;;;;5105725;27;20055;-77
2022/10/02 07:59:53;;;;;;;13.07;3.13;;;;;;;;;;5112860;27;20507;-71
2022/10/02 08:02:49;;;;;;;11.75;2.83;;;;;;;;;;5110884;28;20052;-74
2022/10/02 08:05:24;;;;;;;15.77;3.15;;;;;;;;;;5099075;28;20109;-76
2022/10/02 08:08:05;;;;;;;12.82;2.83;;;;;;;;;;5102903;28;20102;-75
2022/10/02 08:10:36;;;;;;;11.25;2.35;;;;;;;;;;5112774;27;20059;-75
2022/10/02 08:13:02;;;;;;;17.63;3.08;;;;;;;;;;5108135;27;20055;-74
2022/10/02 08:15:33;;;;;;;16.23;3.97;;;;;;;;;;5109684;28;20051;-74
2022/10/02 08:18:07;;;;;;;20.15;3.15;;;;;;;;;;5103996;28;20059;-74
2022/10/02 08:20:53;;;;;;;15.07;2.78;;;;;;;;;;5111203;28;20135;-74
2022/10/02 08:23:26;;;;;;;9.27;2.97;;;;;;;;;;5112602;27;20056;-74
2022/10/02 08:26:03;;;;;;;14.05;2.63;;;;;;;;;;5100906;27;20052;-72
2022/10/02 08:28:41;;;;;;;15.07;2.55;;;;;;;;;;5111332;28;20122;-73
2022/10/02 08:31:10;;;;;;;13.30;3.28;;;;;;;;;;5110505;27;20135;-74
2022/10/02 08:33:37;;;;;;;12.23;3.38;;;;;;;;;;5100435;27;20052;-73
2022/10/02 08:36:04;;;;;;;20.60;3.88;;;;;;;;;;5111577;27;20550;-74
2022/10/02 08:38:33;;;;;;;19.23;2.97;;;;;;;;;;5113036;27;20562;-73
2022/10/02 08:41:03;;;;;;;12.98;3.20;;;;;;;;;;5112523;27;20101;-73
2022/10/02 08:43:47;;;;;;;12.00;3.00;;;;;;;;;;5111873;27;20056;-74
2022/10/02 08:46:33;;;;;;;16.02;3.03;;;;;;;;;;5112532;28;20059;-74
2022/10/02 08:49:19;;;;;;;20.50;3.97;;;;;;;;;;5112396;27;20982;-74
2022/10/02 08:52:04;;;;;;;9.98;2.88;;;;;;;;;;5113410;28;20048;-75
2022/10/02 08:54:45;;;;;;;14.38;3.28;;;;;;;;;;5110961;28;20098;-74
2022/10/02 08:57:12;;;;;;;17.60;3.35;;;;;;;;;;5112600;27;20040;-73
2022/10/02 08:59:47;;;;;;;16.50;3.00;;;;;;;;;;5109774;27;20963;-74
2022/10/02 09:02:13;;;;;;;;;;;;;;;;;;5107245;27;20087;-74
2022/10/02 09:04:42;;;;;;;12.98;3.22;;;;;;;;;;5101006;27;45005;-73
2022/10/02 09:07:25;;;;;;;17.05;3.28;;;;;;;;;;5099993;28;20048;-74
2022/10/02 09:10:12;;;;;;;9.20;2.10;;;;;;;;;;5110979;27;20134;-73
2022/10/02 09:12:57;;;;;;;12.27;3.58;;;;;;;;;;5114746;27;20378;-74
2022/10/02 09:15:41;;;;;;;16.92;2.78;;;;;;;;;;5117280;27;20145;-74
2022/10/02 09:18:07;;;;;;;15.45;2.92;;;;;;;;;;5111575;27;20056;-74
2022/10/02 09:20:42;;;;;;;16.40;2.55;;;;;;;;;;5114960;27;20056;-75
2022/10/02 09:23:27;;;;;;;17.38;2.53;;;;;;;;;;5114944;27;20063;-75
2022/10/02 09:26:13;;;;;;;9.48;2.22;;;;;;;;;;5111873;28;20060;-75
2022/10/02 09:28:59;;;;;;;8.55;2.40;;;;;;;;;;5107273;28;20103;-75
2022/10/02 09:31:33;;;;;;;14.65;2.58;;;;;;;;;;5121336;27;20513;-74
2022/10/02 09:34:09;;;;;;;13.55;2.10;;;;;;;;;;5108158;28;20139;-74
2022/10/02 09:36:35;;;;;;;;;;;;;;;;;;5113736;28;20105;-75
2022/10/02 09:39:23;;;;;;;11.70;2.78;;;;;;;;;;5113788;27;47028;-75
2022/10/02 09:41:57;;;;;;;12.85;2.38;;;;;;;;;;5108806;28;20052;-75
2022/10/02 09:44:57;;;;;;;11.27;2.20;;;;;;;;;;5109690;28;20109;-75
2022/10/02 09:47:53;;;;;;;9.88;2.45;;;;;;;;;;5119519;27;20056;-75
2022/10/02 09:50:40;;;;;;;8.63;1.65;;;;;;;;;;5077786;28;20052;-74
2022/10/02 09:53:26;;;;;;;9.13;2.65;;;;;;;;;;5110023;28;20052;-75
2022/10/02 09:56:11;;;;;;;13.18;2.80;;;;;;;;;;5085803;27;20067;-75
2022/10/02 09:58:50;;;;;;;10.63;2.90;;;;;;;;;;5111035;28;20052;-75
2022/10/02 10:01:28;;;;;;;10.30;2.00;;;;;;;;;;5116090;27;20049;-74
2022/10/02 10:04:07;;;;;;;11.48;2.40;;;;;;;;;;5115008;27;20071;-75
2022/10/02 10:06:48;;;;;;;10.32;2.28;;;;;;;;;;5109160;28;20059;-74
2022/10/02 10:09:24;;;;;;;11.05;2.80;;;;;;;;;;5107411;27;20044;-75
2022/10/02 10:12:04;;;;;;;16.00;2.80;;;;;;;;;;5108726;27;20435;-75
2022/10/02 10:14:33;;;;;;;12.48;2.47;;;;;;;;;;5112536;27;20109;-75
2022/10/02 10:17:18;;;;;;;12.05;2.22;;;;;;;;;;5101825;28;20954;-75
2022/10/02 10:20:04;;;;;;;9.63;1.95;;;;;;;;;;5112806;27;20091;-74
2022/10/02 10:22:31;;;;;;;12.23;2.25;;;;;;;;;;5114539;28;20064;-74
2022/10/02 10:25:09;;;;;;;10.32;1.95;;;;;;;;;;5109908;27;20061;-74
2022/10/02 10:27:37;;;;;;;10.88;1.92;;;;;;;;;;5106301;27;20056;-73
2022/10/02 10:30:22;;;;;;;10.13;2.00;;;;;;;;;;5114479;27;20048;-73
2022/10/02 10:33:07;;;;;;;11.85;1.80;;;;;;;;;;5100989;27;20060;-74
2022/10/02 10:35:33;;;;;;;6.93;1.50;;;;;;;;;;5113191;28;20059;-73
2022/10/02 10:38:33;;;;;;;9.88;1.98;;;;;;;;;;5114164;27;20051;-74
2022/10/02 10:40:59;;;;;;;9.65;2.38;;;;;;;;;;5100608;28;20048;-73
2022/10/02 10:43:25;;;;;;;9.82;2.17;;;;;;;;;;5106181;28;20052;-73
2022/10/02 10:45:52;;;;;;;14.82;2.42;;;;;;;;;;5113796;27;20090;-75
2022/10/02 10:48:19;;;;;;;15.25;2.97;;;;;;;;;;5114003;27;20056;-74
2022/10/02 10:50:45;;;;;;;11.07;1.95;;;;;;;;;;5114032;27;20078;-74
2022/10/02 10:53:32;;;;;;;10.95;2.83;;;;;;;;;;5112211;27;20052;-74
2022/10/02 10:56:18;;;;;;;9.32;2.08;;;;;;;;;;5113109;27;20048;-74
2022/10/02 10:59:05;;;;;;;7.72;2.15;;;;;;;;;;5109820;28;20052;-75
2022/10/02 11:01:37;;;;;;;11.00;2.58;;;;;;;;;;5103742;28;20057;-74
2022/10/02 11:04:12;;;;;;;13.68;2.42;;;;;;;;;;5107834;28;20047;-74
2022/10/02 11:06:41;;;;;;;8.85;2.33;;;;;;;;;;5112790;27;20064;-74
2022/10/02 11:09:30;;;;;;;9.88;2.03;;;;;;;;;;5114580;27;20056;-74
2022/10/02 11:12:10;;;;;;;11.30;2.40;;;;;;;;;;5099713;27;20052;-73
2022/10/02 11:14:40;;;;;;;18.48;2.40;;;;;;;;;;5112784;27;20102;-73
2022/10/02 11:17:09;;;;;;;9.48;1.77;;;;;;;;;;5112561;27;20060;-74
2022/10/02 11:19:40;;;;;;;13.38;1.88;;;;;;;;;;5102347;27;20106;-75
2022/10/02 11:22:10;;;;;;;8.98;1.55;;;;;;;;;;5104697;27;20109;-74
2022/10/02 11:24:42;;;;;;;9.95;2.35;;;;;;;;;;5113646;27;20056;-74
2022/10/02 11:27:14;;;;;;;14.48;3.67;;;;;;;;;;5112540;27;20052;-74
2022/10/02 11:29:47;;;;;;;9.75;2.22;;;;;;;;;;5112140;27;20544;-74
2022/10/02 11:32:16;;;;;;;11.35;2.30;;;;;;;;;;5110378;28;20048;-70
2022/10/02 11:34:43;;;;;;;18.55;2.60;;;;;;;;;;5111836;27;20110;-71
2022/10/02 11:37:23;;;;;;;10.80;2.80;;;;;;;;;;5107685;27;20048;-72
2022/10/02 11:39:58;;;;;;;9.60;1.88;;;;;;;;;;5108545;28;20155;-72
2022/10/02 11:42:27;;;;;;;10.88;2.45;;;;;;;;;;5102472;28;20052;-72
2022/10/02 11:44:54;;;;;;;12.68;2.97;;;;;;;;;;5099007;27;20508;-71
2022/10/02 11:47:32;;;;;;;11.10;2.33;;;;;;;;;;5120423;27;20132;-71
2022/10/02 11:50:17;;;;;;;13.27;2.22;;;;;;;;;;5113595;27;20106;-71
2022/10/02 11:52:44;;;;;;;14.32;2.83;;;;;;;;;;5105775;28;20048;-71
2022/10/02 11:55:32;;;;;;;10.38;2.13;;;;;;;;;;5111170;27;20063;-71
2022/10/02 11:57:59;;;;;;;15.40;2.33;;;;;;;;;;5117743;27;20103;-71
2022/10/02 12:00:25;;;;;;;11.95;2.75;;;;;;;;;;5111161;27;20498;-71
2022/10/02 12:02:58;;;;;;;9.70;2.17;;;;;;;;;;5110376;27;20059;-71
2022/10/02 12:05:45;;;;;;;10.75;1.83;;;;;;;;;;5104414;27;20056;-71
2022/10/02 12:08:13;;;;;;;12.23;2.20;;;;;;;;;;5111425;27;20060;-71
2022/10/02 12:10:59;;;;;;;12.82;2.17;;;;;;;;;;5111776;27;20056;-72
2022/10/02 12:13:31;;;;;;;12.48;2.38;;;;;;;;;;5092628;28;20051;-72
2022/10/02 12:16:23;;;;;;;9.50;2.05;;;;;;;;;;5109700;28;20056;-71
2022/10/02 12:19:09;;;;;;;9.43;1.98;;;;;;;;;;5106553;28;20048;-71
2022/10/02 12:27:26;;;;;;;9.60;1.60;;;;;;;;;;5106036;28;20066;-71
2022/10/02 12:30:07;;;;;;;9.30;1.83;;;;;;;;;;5094613;27;20064;-71
2022/10/02 12:32:52;;;;;;;10.32;2.05;;;;;;;;;;5110344;28;20083;-70
2022/10/02 12:35:25;;;;;;;7.22;1.80;;;;;;;;;;5110188;27;20052;-71
2022/10/02 12:38:30;;;;;;;10.15;1.40;;;;;;;;;;5107378;28;20106;-72
2022/10/02 12:41:07;;;;;;;12.95;1.85;;;;;;;;;;5068187;28;20107;-71
2022/10/02 12:43:53;;;;;;;12.30;1.60;;;;;;;;;;5067836;28;20053;-71
2022/10/02 12:46:20;;;;;;;;;;;;;;;;;;5095907;27;20405;-73
2022/10/02 12:49:03;;;;;;;9.82;1.67;;;;;;;;;;5110950;28;46652;-72
2022/10/02 12:51:49;;;;;;;7.32;2.08;;;;;;;;;;5112437;27;20078;-71
2022/10/02 12:54:33;;;;;;;9.68;1.80;;;;;;;;;;5111809;28;20056;-71
2022/10/02 13:00:13;;;;;;;6.50;2.42;;;;;;;;;;5099554;27;20048;-71
2022/10/02 13:02:51;;;;;;;5.38;1.52;;;;;;;;;;5103587;27;20052;-72
2022/10/02 13:05:51;;;;;;;7.38;1.90;;;;;;;;;;5099449;27;20106;-71
2022/10/02 13:08:36;;;;;;;7.95;1.42;;;;;;;;;;5114847;27;20056;-72
2022/10/02 13:11:02;;;;;;;5.80;1.65;;;;;;;;;;5111940;28;20514;-71
2022/10/02 13:13:34;;;;;;;7.45;1.67;;;;;;;;;;5114556;28;20048;-72
2022/10/02 13:16:13;;;;;;;7.28;1.45;;;;;;;;;;5098516;28;20565;-71
2022/10/02 13:18:43;;;;;;;6.03;1.42;;;;;;;;;;5114861;28;20053;-71
2022/10/02 13:21:24;;;;;;;10.10;1.95;;;;;;;;;;5119328;27;20055;-71
2022/10/02 13:23:58;;;;;;;15.68;2.42;;;;;;;;;;5110241;28;20063;-71
2022/10/02 13:26:24;;;;;;;13.32;2.50;;;;;;;;;;5114913;27;20896;-71
2022/10/02 13:29:02;;;;;;;7.60;1.55;;;;;;;;;;5114197;28;20118;-71
2022/10/02 13:31:34;;;;;;;8.23;1.77;;;;;;;;;;5114801;27;20549;-72
2022/10/02 13:34:13;;;;;;;5.00;1.70;;;;;;;;;;5111892;28;20054;-72
2022/10/02 13:36:39;;;;;;;11.00;2.78;;;;;;;;;;5115077;27;20113;-72
2022/10/02 13:39:18;;;;;;;8.98;1.75;;;;;;;;;;5114251;27;20052;-71
2022/10/02 13:41:53;;;;;;;9.25;2.03;;;;;;;;;;5111298;27;20060;-72
2022/10/02 13:44:26;;;;;;;7.72;2.00;;;;;;;;;;5103478;27;20411;-72
2022/10/02 13:46:56;;;;;;;11.85;2.30;;;;;;;;;;5108963;27;20381;-72
2022/10/02 13:49:22;;;;;;;12.05;2.13;;;;;;;;;;5104841;27;20055;-72
2022/10/02 13:51:51;;;;;;;9.00;1.80;;;;;;;;;;5113548;27;20478;-72
2022/10/02 13:54:37;;;;;;;9.45;1.55;;;;;;;;;;5112041;27;20052;-71
2022/10/02 13:57:31;;;;;;;8.07;1.83;;;;;;;;;;5114353;27;20048;-71
2022/10/02 14:00:00;;;;;;;7.53;3.03;;;;;;;;;;5097885;27;20063;-70
2022/10/02 14:02:39;;;;;;;7.40;1.52;;;;;;;;;;5102312;27;20078;-71
2022/10/02 14:05:25;;;;;;;6.45;1.30;;;;;;;;;;5115330;27;20059;-71
2022/10/02 14:08:01;;;;;;;9.00;1.80;;;;;;;;;;5093691;28;20052;-71
2022/10/02 14:10:27;;;;;;;10.25;2.30;;;;;;;;;;5094227;28;20053;-70
2022/10/02 14:13:15;;;;;;;8.15;1.70;;;;;;;;;;5093786;28;20106;-70
2022/10/02 14:15:41;;;;;;;7.03;1.80;;;;;;;;;;5094720;28;20110;-70
2022/10/02 14:18:26;;;;;;;8.25;2.17;;;;;;;;;;5092425;28;20052;-70
2022/10/02 14:21:11;;;;;;;10.38;1.77;;;;;;;;;;5097189;28;20056;-70
2022/10/02 14:23:47;;;;;;;6.70;1.77;;;;;;;;;;5104684;28;20055;-70
2022/10/02 14:26:18;;;;;;;8.98;2.08;;;;;;;;;;5105794;27;20568;-70
2022/10/02 14:29:03;;;;;;;6.78;1.70;;;;;;;;;;5107625;27;20060;-70
2022/10/02 14:31:41;;;;;;;8.75;2.33;;;;;;;;;;5103600;27;20052;-70
2022/10/02 14:34:07;;;;;;;9.77;2.10;;;;;;;;;;5111615;27;20062;-70
2022/10/02 14:36:37;;;;;;;6.60;2.00;;;;;;;;;;5106001;27;20541;-70
2022/10/02 14:39:03;;;;;;;9.45;2.28;;;;;;;;;;5116557;27;20061;-70
2022/10/02 14:41:35;;;;;;;10.60;1.70;;;;;;;;;;5124235;27;20480;-70
2022/10/02 14:44:06;;;;;;;9.15;1.98;;;;;;;;;;5113020;27;20055;-70
2022/10/02 14:46:48;;;;;;;9.82;1.70;;;;;;;;;;5106743;27;20048;-70
2022/10/02 14:49:29;;;;;;;11.88;2.58;;;;;;;;;;5111763;28;20101;-70
2022/10/02 14:52:15;;;;;;;8.25;1.83;;;;;;;;;;5112885;27;20082;-70
2022/10/02 14:54:44;;;;;;;7.97;1.55;;;;;;;;;;5100278;28;20051;-70
2022/10/02 14:57:35;;;;;;;11.35;2.10;;;;;;;;;;5112337;27;20569;-70
2022/10/02 15:00:07;;;;;;;10.98;1.70;;;;;;;;;;5099403;27;20052;-71
2022/10/02 15:02:52;;;;;;;8.25;1.80;;;;;;;;;;5099965;27;20106;-70
2022/10/02 15:05:37;;;;;;;10.27;2.03;;;;;;;;;;5112321;28;20098;-70
2022/10/02 15:08:10;;;;;;;7.63;2.42;;;;;;;;;;5112377;28;20059;-69
2022/10/02 15:10:37;;;;;;;5.82;1.25;;;;;;;;;;5101319;27;20110;-69
2022/10/02 15:13:36;;;;;;;9.35;1.90;;;;;;;;;;5097272;28;20063;-69
2022/10/02 15:19:14;;;;;;;8.75;1.80;;;;;;;;;;5106938;27;20048;-69
2022/10/02 15:22:00;;;;;;;8.15;2.28;;;;;;;;;;5108840;27;20055;-69
2022/10/02 15:24:29;;;;;;;8.32;1.58;;;;;;;;;;5102217;27;20499;-71
2022/10/02 15:27:20;;;;;;;4.88;1.67;;;;;;;;;;5092927;27;20500;-70
2022/10/02 15:29:53;;;;;;;17.85;3.33;;;;;;;;;;5098545;27;20146;-69
2022/10/02 15:32:19;;;;;;;12.75;1.70;;;;;;;;;;5109719;27;20101;-69
2022/10/02 15:34:46;;;;;;;6.82;1.58;;;;;;;;;;5095445;28;20082;-70
2022/10/02 15:37:12;;;;;;;5.30;1.52;;;;;;;;;;5103224;27;20572;-70